Polar Opposite — WDI6111 — position and weather

sailwx.info

Track history (hours):
 
Tides and Currents Weather Stations Pressure Air Temp Water Temp Dewpoint Dewpoint Depression Visibility Wind Speed Wind Dir Waves Ship Positions

Polar Opposite

Owner: Derenski, Bruce A, Hernando Beach, FL. More information available from US FCC via Universal Licensing System and Coast Guard Vessel Documentation Center.

Last reported at 2017-Oct-04 13:51 UTC. Time now 2017-Dec-13 05:24 UTC.
Position N 31°53' W 080°33'.
Warning: this ship's position is months out of date.

Length 43 m; draft 7 m.

Type: Tanker. MMSI: 369526000.

Date/timePositionNaut miles runAvg speedWind from/ knotsBaromVisibWave heightAir tempDewpointWater temp
2017-Oct-04 13:51N 31°53' W 080°33'510.9
2017-Oct-04 13:23N 31°55' W 080°39'410.8
2017-Oct-04 13:00N 31°57' W 080°43'510.5
2017-Oct-04 12:30N 32°00' W 080°48'5 9.9
2017-Oct-04 12:00N 32°02' W 080°53'5 9.3
2017-Oct-04 11:30N 32°04' W 080°58'4 7.1
2017-Oct-04 11:00N 32°05' W 081°02'3 5.7
2017-Oct-04 10:30N 32°05' W 081°06'2 3.3
2017-Oct-04 10:00N 32°06' W 081°07'0 0.4
2017-Oct-04 09:30N 32°06' W 081°07'0 1.0
2017-Oct-04 09:00N 32°06' W 081°06'0 0.0
2017-Oct-04 08:30N 32°06' W 081°06'0 0.1
2017-Oct-04 07:56N 32°06' W 081°06'0 0.0
2017-Oct-04 07:26N 32°06' W 081°06'0 0.0
2017-Oct-04 06:56N 32°06' W 081°06'0 0.0
2017-Oct-04 06:26N 32°06' W 081°06'0 0.0
2017-Oct-04 05:56N 32°06' W 081°06'0 0.0
2017-Oct-04 05:26N 32°06' W 081°06'0 0.0
2017-Oct-04 04:50N 32°06' W 081°06'0 0.0
2017-Oct-04 04:26N 32°06' W 081°06'0 0.0
2017-Oct-04 03:56N 32°06' W 081°06'0 0.0
2017-Oct-04 03:20N 32°06' W 081°06'0 0.0
2017-Oct-04 02:50N 32°06' W 081°06'0 0.0
2017-Oct-04 02:20N 32°06' W 081°06'0 0.0
2017-Oct-04 01:56N 32°06' W 081°06'0 0.0
2017-Oct-04 01:26N 32°06' W 081°06'0 0.1
2017-Oct-04 00:56N 32°06' W 081°06'0 0.0
2017-Oct-04 00:26N 32°06' W 081°06'0 0.0
2017-Oct-03 23:56N 32°06' W 081°06'0 0.0
2017-Oct-03 23:26N 32°06' W 081°06'0 0.0
2017-Oct-03 22:56N 32°06' W 081°06'0 0.0
2017-Oct-03 22:26N 32°06' W 081°06'0 0.0
2017-Oct-03 21:56N 32°06' W 081°06'0 0.0
2017-Oct-03 21:26N 32°06' W 081°06'0 0.0
2017-Oct-03 20:56N 32°06' W 081°06'0 0.0
2017-Oct-03 20:26N 32°06' W 081°06'0 0.0
2017-Oct-03 19:56N 32°06' W 081°06'0 0.0
2017-Oct-03 19:26N 32°06' W 081°06'0 0.0
2017-Oct-03 18:56N 32°06' W 081°06'0 0.0
2017-Oct-03 18:26N 32°06' W 081°06'0 0.0
2017-Oct-03 17:56N 32°06' W 081°06'0 0.0
2017-Oct-03 17:26N 32°06' W 081°06'0 0.0
2017-Oct-03 16:56N 32°06' W 081°06'0 0.0
2017-Oct-03 16:26N 32°06' W 081°06'0 0.0
2017-Oct-03 15:56N 32°06' W 081°06'0 0.0
2017-Oct-03 15:26N 32°06' W 081°06'0 0.0
2017-Oct-03 14:56N 32°06' W 081°06'0 0.0
2017-Oct-03 13:56N 32°06' W 081°06'0 0.0
2017-Oct-03 13:26N 32°06' W 081°06'0 0.0
2017-Oct-03 12:56N 32°06' W 081°06'0 0.0
2017-Oct-03 12:26N 32°06' W 081°06'0 0.0
2017-Oct-03 11:56N 32°06' W 081°06'0 0.0
2017-Oct-03 11:26N 32°06' W 081°06'0 0.0
2017-Oct-03 10:56N 32°06' W 081°06'0 0.0
2017-Oct-03 10:26N 32°06' W 081°06'0 0.0
2017-Oct-03 09:56N 32°06' W 081°06'0 0.0
2017-Oct-03 09:26N 32°06' W 081°06'0 0.0
2017-Oct-03 08:50N 32°06' W 081°06'0 0.0
2017-Oct-03 08:26N 32°06' W 081°06'0 0.0
2017-Oct-03 07:56N 32°06' W 081°06'0 0.0
2017-Oct-03 07:26N 32°06' W 081°06'0 0.0
2017-Oct-03 06:56N 32°06' W 081°06'0 0.0
2017-Oct-03 06:26N 32°06' W 081°06'0 0.0
2017-Oct-03 05:50N 32°06' W 081°06'0 0.0
2017-Oct-03 05:26N 32°06' W 081°06'0 0.0
2017-Oct-03 04:56N 32°06' W 081°06'0 0.0
2017-Oct-03 04:26N 32°06' W 081°06'0 0.0
2017-Oct-03 03:56N 32°06' W 081°06'0 0.0
2017-Oct-03 03:20N 32°06' W 081°06'0 0.0
2017-Oct-03 02:56N 32°06' W 081°06'0 0.0
2017-Oct-03 02:26N 32°06' W 081°06'0 0.0
2017-Oct-03 01:56N 32°06' W 081°06'0 0.0
2017-Oct-03 01:20N 32°06' W 081°06'0 0.0
2017-Oct-03 00:56N 32°06' W 081°06'0 0.0
2017-Oct-03 00:20N 32°06' W 081°06'0 0.0
2017-Oct-02 23:44N 32°06' W 081°06'0 0.0
2017-Oct-02 23:26N 32°06' W 081°06'0 0.0
2017-Oct-02 22:56N 32°06' W 081°06'0 0.0
2017-Oct-02 22:26N 32°06' W 081°06'0 0.0
2017-Oct-02 21:56N 32°06' W 081°06'0 0.0
2017-Oct-02 21:26N 32°06' W 081°06'0 0.0
2017-Oct-02 20:56N 32°06' W 081°06'0 0.0
2017-Oct-02 20:26N 32°06' W 081°06'0 0.0
2017-Oct-02 19:56N 32°06' W 081°06'0 0.0
2017-Oct-02 19:26N 32°06' W 081°06'0 0.0
2017-Oct-02 18:56N 32°06' W 081°06'0 0.0
2017-Oct-02 18:26N 32°06' W 081°06'0 0.0
2017-Oct-02 17:56N 32°06' W 081°06'0 0.0
2017-Oct-02 17:26N 32°06' W 081°06'0 0.0
2017-Oct-02 16:56N 32°06' W 081°06'0 0.0
2017-Oct-02 16:26N 32°06' W 081°06'0 0.0
2017-Oct-02 15:56N 32°06' W 081°06'0 0.0
2017-Oct-02 15:30N 32°06' W 081°06'0 0.9
2017-Oct-02 15:00N 32°05' W 081°06'3 5.8
2017-Oct-02 14:30N 32°05' W 081°03'3 5.7
2017-Oct-02 14:00N 32°05' W 080°59'4 8.2
2017-Oct-02 13:30N 32°03' W 080°56'4 8.6
2017-Oct-02 13:00N 32°02' W 080°51'5 9.2
2017-Oct-02 12:30N 31°59' W 080°46'510.1
2017-Oct-02 12:00N 31°56' W 080°42'4 8.1
2017-Oct-02 11:30N 31°53' W 080°39'3 6.4
2017-Oct-02 11:00N 31°51' W 080°36'1 2.2
2017-Oct-02 10:24N 31°50' W 080°34'2 5.9
2017-Oct-02 10:00N 31°53' W 080°35'291 9.3
2017-Oct-01 02:46N 27°03' W 079°58'110 3.8
2017-Sep-29 22:10N 25°14' W 080°04'210.3
2017-Sep-29 22:00N 25°15' W 080°03'510.2
2017-Sep-29 21:30N 25°20' W 080°01'5 9.8
2017-Sep-29 21:00N 25°24' W 079°59'5 9.9
2017-Sep-29 20:30N 25°29' W 079°59'510.0
2017-Sep-29 20:00N 25°34' W 079°59'5 9.8
2017-Sep-29 19:30N 25°39' W 079°59'5 9.9
2017-Sep-29 19:00N 25°44' W 079°59'510.3
2017-Sep-29 18:30N 25°49' W 079°59'1510.3
2017-Sep-29 17:00N 26°05' W 079°59'5 9.7
2017-Sep-29 16:31N 26°10' W 079°59'5 9.9
2017-Sep-29 16:01N 26°14' W 079°58'510.0
2017-Sep-29 15:31N 26°19' W 079°58'5 9.9
2017-Sep-29 15:00N 26°24' W 079°58'510.3
2017-Sep-29 14:31N 26°30' W 079°57'611.7
2017-Sep-29 14:00N 26°36' W 079°57'511.0
2017-Sep-29 13:31N 26°41' W 079°57'510.4
2017-Sep-29 13:00N 26°46' W 079°57'510.6
2017-Sep-29 12:30N 26°51' W 079°57'510.4
2017-Sep-29 12:01N 26°57' W 079°57'510.3
2017-Sep-29 11:30N 27°02' W 079°57'510.2
2017-Sep-29 11:00N 27°07' W 079°58'  
Track history (hours):
 
Tides and Currents Weather Stations Pressure Air Temp Water Temp Dewpoint Dewpoint Depression Visibility Wind Speed Wind Dir Waves Ship Positions

Polar Opposite

Owner: Derenski, Bruce A, Hernando Beach, FL. More information available from US FCC via Universal Licensing System and Coast Guard Vessel Documentation Center.

Last reported at 2017-Oct-04 13:51 UTC. Time now 2017-Dec-13 05:24 UTC.
Position N 31°53' W 080°33'.
Warning: this ship's position is months out of date.

Length 43 m; draft 7 m.

Type: Tanker. MMSI: 369526000.

Date/timePositionNaut miles runAvg speedWind from/ knotsBaromVisibWave heightAir tempDewpointWater temp
2017-Oct-04 13:51N 31°53' W 080°33'510.9
2017-Oct-04 13:23N 31°55' W 080°39'410.8
2017-Oct-04 13:00N 31°57' W 080°43'510.5
2017-Oct-04 12:30N 32°00' W 080°48'5 9.9
2017-Oct-04 12:00N 32°02' W 080°53'5 9.3
2017-Oct-04 11:30N 32°04' W 080°58'4 7.1
2017-Oct-04 11:00N 32°05' W 081°02'3 5.7
2017-Oct-04 10:30N 32°05' W 081°06'2 3.3
2017-Oct-04 10:00N 32°06' W 081°07'0 0.4
2017-Oct-04 09:30N 32°06' W 081°07'0 1.0
2017-Oct-04 09:00N 32°06' W 081°06'0 0.0
2017-Oct-04 08:30N 32°06' W 081°06'0 0.1
2017-Oct-04 07:56N 32°06' W 081°06'0 0.0
2017-Oct-04 07:26N 32°06' W 081°06'0 0.0
2017-Oct-04 06:56N 32°06' W 081°06'0 0.0
2017-Oct-04 06:26N 32°06' W 081°06'0 0.0
2017-Oct-04 05:56N 32°06' W 081°06'0 0.0
2017-Oct-04 05:26N 32°06' W 081°06'0 0.0
2017-Oct-04 04:50N 32°06' W 081°06'0 0.0
2017-Oct-04 04:26N 32°06' W 081°06'0 0.0
2017-Oct-04 03:56N 32°06' W 081°06'0 0.0
2017-Oct-04 03:20N 32°06' W 081°06'0 0.0
2017-Oct-04 02:50N 32°06' W 081°06'0 0.0
2017-Oct-04 02:20N 32°06' W 081°06'0 0.0
2017-Oct-04 01:56N 32°06' W 081°06'0 0.0
2017-Oct-04 01:26N 32°06' W 081°06'0 0.1
2017-Oct-04 00:56N 32°06' W 081°06'0 0.0
2017-Oct-04 00:26N 32°06' W 081°06'0 0.0
2017-Oct-03 23:56N 32°06' W 081°06'0 0.0
2017-Oct-03 23:26N 32°06' W 081°06'0 0.0
2017-Oct-03 22:56N 32°06' W 081°06'0 0.0
2017-Oct-03 22:26N 32°06' W 081°06'0 0.0
2017-Oct-03 21:56N 32°06' W 081°06'0 0.0
2017-Oct-03 21:26N 32°06' W 081°06'0 0.0
2017-Oct-03 20:56N 32°06' W 081°06'0 0.0
2017-Oct-03 20:26N 32°06' W 081°06'0 0.0
2017-Oct-03 19:56N 32°06' W 081°06'0 0.0
2017-Oct-03 19:26N 32°06' W 081°06'0 0.0
2017-Oct-03 18:56N 32°06' W 081°06'0 0.0
2017-Oct-03 18:26N 32°06' W 081°06'0 0.0
2017-Oct-03 17:56N 32°06' W 081°06'0 0.0
2017-Oct-03 17:26N 32°06' W 081°06'0 0.0
2017-Oct-03 16:56N 32°06' W 081°06'0 0.0
2017-Oct-03 16:26N 32°06' W 081°06'0 0.0
2017-Oct-03 15:56N 32°06' W 081°06'0 0.0
2017-Oct-03 15:26N 32°06' W 081°06'0 0.0
2017-Oct-03 14:56N 32°06' W 081°06'0 0.0
2017-Oct-03 13:56N 32°06' W 081°06'0 0.0
2017-Oct-03 13:26N 32°06' W 081°06'0 0.0
2017-Oct-03 12:56N 32°06' W 081°06'0 0.0
2017-Oct-03 12:26N 32°06' W 081°06'0 0.0
2017-Oct-03 11:56N 32°06' W 081°06'0 0.0
2017-Oct-03 11:26N 32°06' W 081°06'0 0.0
2017-Oct-03 10:56N 32°06' W 081°06'0 0.0
2017-Oct-03 10:26N 32°06' W 081°06'0 0.0
2017-Oct-03 09:56N 32°06' W 081°06'0 0.0
2017-Oct-03 09:26N 32°06' W 081°06'0 0.0
2017-Oct-03 08:50N 32°06' W 081°06'0 0.0
2017-Oct-03 08:26N 32°06' W 081°06'0 0.0
2017-Oct-03 07:56N 32°06' W 081°06'0 0.0
2017-Oct-03 07:26N 32°06' W 081°06'0 0.0
2017-Oct-03 06:56N 32°06' W 081°06'0 0.0
2017-Oct-03 06:26N 32°06' W 081°06'0 0.0
2017-Oct-03 05:50N 32°06' W 081°06'0 0.0
2017-Oct-03 05:26N 32°06' W 081°06'0 0.0
2017-Oct-03 04:56N 32°06' W 081°06'0 0.0
2017-Oct-03 04:26N 32°06' W 081°06'0 0.0
2017-Oct-03 03:56N 32°06' W 081°06'0 0.0
2017-Oct-03 03:20N 32°06' W 081°06'0 0.0
2017-Oct-03 02:56N 32°06' W 081°06'0 0.0
2017-Oct-03 02:26N 32°06' W 081°06'0 0.0
2017-Oct-03 01:56N 32°06' W 081°06'0 0.0
2017-Oct-03 01:20N 32°06' W 081°06'0 0.0
2017-Oct-03 00:56N 32°06' W 081°06'0 0.0
2017-Oct-03 00:20N 32°06' W 081°06'0 0.0
2017-Oct-02 23:44N 32°06' W 081°06'0 0.0
2017-Oct-02 23:26N 32°06' W 081°06'0 0.0
2017-Oct-02 22:56N 32°06' W 081°06'0 0.0
2017-Oct-02 22:26N 32°06' W 081°06'0 0.0
2017-Oct-02 21:56N 32°06' W 081°06'0 0.0
2017-Oct-02 21:26N 32°06' W 081°06'0 0.0
2017-Oct-02 20:56N 32°06' W 081°06'0 0.0
2017-Oct-02 20:26N 32°06' W 081°06'0 0.0
2017-Oct-02 19:56N 32°06' W 081°06'0 0.0
2017-Oct-02 19:26N 32°06' W 081°06'0 0.0
2017-Oct-02 18:56N 32°06' W 081°06'0 0.0
2017-Oct-02 18:26N 32°06' W 081°06'0 0.0
2017-Oct-02 17:56N 32°06' W 081°06'0 0.0
2017-Oct-02 17:26N 32°06' W 081°06'0 0.0
2017-Oct-02 16:56N 32°06' W 081°06'0 0.0
2017-Oct-02 16:26N 32°06' W 081°06'0 0.0
2017-Oct-02 15:56N 32°06' W 081°06'0 0.0
2017-Oct-02 15:30N 32°06' W 081°06'0 0.9
2017-Oct-02 15:00N 32°05' W 081°06'3 5.8
2017-Oct-02 14:30N 32°05' W 081°03'3 5.7
2017-Oct-02 14:00N 32°05' W 080°59'4 8.2
2017-Oct-02 13:30N 32°03' W 080°56'4 8.6
2017-Oct-02 13:00N 32°02' W 080°51'5 9.2
2017-Oct-02 12:30N 31°59' W 080°46'510.1
2017-Oct-02 12:00N 31°56' W 080°42'4 8.1
2017-Oct-02 11:30N 31°53' W 080°39'3 6.4
2017-Oct-02 11:00N 31°51' W 080°36'1 2.2
2017-Oct-02 10:24N 31°50' W 080°34'2 5.9
2017-Oct-02 10:00N 31°53' W 080°35'291 9.3
2017-Oct-01 02:46N 27°03' W 079°58'110 3.8
2017-Sep-29 22:10N 25°14' W 080°04'210.3
2017-Sep-29 22:00N 25°15' W 080°03'510.2
2017-Sep-29 21:30N 25°20' W 080°01'5 9.8
2017-Sep-29 21:00N 25°24' W 079°59'5 9.9
2017-Sep-29 20:30N 25°29' W 079°59'510.0
2017-Sep-29 20:00N 25°34' W 079°59'5 9.8
2017-Sep-29 19:30N 25°39' W 079°59'5 9.9
2017-Sep-29 19:00N 25°44' W 079°59'510.3
2017-Sep-29 18:30N 25°49' W 079°59'1510.3
2017-Sep-29 17:00N 26°05' W 079°59'5 9.7
2017-Sep-29 16:31N 26°10' W 079°59'5 9.9
2017-Sep-29 16:01N 26°14' W 079°58'510.0
2017-Sep-29 15:31N 26°19' W 079°58'5 9.9
2017-Sep-29 15:00N 26°24' W 079°58'510.3
2017-Sep-29 14:31N 26°30' W 079°57'611.7
2017-Sep-29 14:00N 26°36' W 079°57'511.0
2017-Sep-29 13:31N 26°41' W 079°57'510.4
2017-Sep-29 13:00N 26°46' W 079°57'510.6
2017-Sep-29 12:30N 26°51' W 079°57'510.4
2017-Sep-29 12:01N 26°57' W 079°57'510.3
2017-Sep-29 11:30N 27°02' W 079°57'510.2
2017-Sep-29 11:00N 27°07' W 079°58'  

Dump ship's entire track history